Colinas de Cayey, Puerto Rico
Current Conditions -  °F | °C
As of 10:50 AM on Sunday 23 Nov 2014 (Local Time) from TJIG Reporting Station
Broken Clouds Broken Clouds  
Wind Chill: 82°   Ceiling: 10000
Heat Index: 87°   Visibility: 10mi
Dew Point: 72°   Wind: 17mph
Humidity: 70%   Direction: 100°E
Pressure: 30.08"   Gusts: NA
Location:  18.1193°N, 66.1642°W
Report Text: TJIG 231450Z 10015KT 10SM SCT033 BKN100 28/22 A3008 RMK RY09 IN USE ATIS E
Loading
Personal Weather Stations






























Interactive Weather Map New forecast layout! Learn more

10-Day Weather Forecast

Advertisements
Track Severe Weather on mobile